METAR OBSERVATIONS
Looking Back 6 hours

  • KPBF 221553Z AUTO VRB05KT 10SM CLR 32/24 A2999 RMK AO2 SLP152 T03170244 =
  • KPBF 221453Z AUTO 24004KT 10SM CLR 31/24 A3000 RMK AO2 SLP154 T03060244 51009 =
  • KPBF 221353Z AUTO VRB04KT 10SM CLR 28/24 A2999 RMK AO2 SLP154 T02830244 =
  • KPBF 221253Z AUTO 20005KT 10SM CLR 27/24 A2998 RMK AO2 SLP149 T02670239 =
  • KPBF 221153Z AUTO 22005KT 9SM CLR 25/23 A2997 RMK AO2 SLP145 T02500233 10272 20244 51012 =
  • KPBF 221053Z AUTO 19004KT 8SM CLR 24/23 A2996 RMK AO2 SLP141 T02440233 =
    ________________________________________